Time;durP1;ratioP1;P1;durP2;ratioP2;P2;SDS_P1;SDS_P2;PMS_P1;PMS_P2;Temp;Humidity;BMP_temperature;BMP_pressure;BME280_temperature;BME280_humidity;BME280_pressure;Samples;Min_cycle;Max_cycle;Signal;HPM_P1;HPM_P2
2023/08/21 00:01:45;;;;;;;;;;;23.50;49.40;;;19.95;93.86;96018.16;5013888;28;19909;-47
2023/08/21 00:04:11;;;;;;;;;;;23.50;49.50;;;19.92;93.89;96031.50;5013317;28;19924;-48
2023/08/21 00:06:37;;;;;;;;;;;23.50;49.60;;;19.86;95.08;96026.22;5002354;28;19936;-46
2023/08/21 00:09:03;;;;;;;;;;;23.50;49.70;;;19.78;95.79;96021.59;5001653;28;19953;-46
2023/08/21 00:11:29;;;;;;;;;;;23.40;49.80;;;19.78;95.49;96018.13;5014484;28;19913;-46
2023/08/21 00:13:54;;;;;;;;;;;23.40;49.90;;;19.77;95.96;96022.69;5001009;28;19909;-46
2023/08/21 00:16:20;;;;;;;;;;;23.40;50.10;;;19.75;96.92;96016.81;5007139;28;20012;-45
2023/08/21 00:18:46;;;;;;;;;;;23.40;50.20;;;19.73;97.11;96019.03;4997422;28;20012;-48
2023/08/21 00:21:12;;;;;;;;;;;23.30;50.20;;;19.73;96.86;96016.34;5002574;28;19912;-46
2023/08/21 00:23:38;;;;;;;;;;;23.30;50.40;;;19.72;96.94;96011.25;5012006;28;19916;-46
2023/08/21 00:26:04;;;;;;;;;;;23.30;50.50;;;19.71;96.86;96010.47;5002619;28;20334;-49
2023/08/21 00:28:32;;;;;;;;;;;23.30;50.60;;;19.71;97.00;96013.16;5001160;28;20011;-48
2023/08/21 00:31:06;;;;;;;;;;;23.30;50.70;;;19.71;97.21;96015.88;5005084;28;19913;-45
2023/08/21 00:33:33;;;;;;;;;;;23.30;50.80;;;19.69;97.34;96006.47;5008073;28;19913;-46
2023/08/21 00:35:58;;;;;;;;;;;23.30;50.90;;;19.67;97.53;96014.09;5002778;28;20000;-45
2023/08/21 00:38:25;;;;;;;;;;;23.30;51.00;;;19.63;98.43;96011.19;5001145;28;20348;-47
2023/08/21 00:40:51;;;;;;;;;;;23.30;51.00;;;19.60;99.05;96007.19;5004201;28;19914;-45
2023/08/21 00:43:17;;;;;;;;;;;23.20;51.00;;;19.61;99.01;96008.78;5024402;28;20291;-45
2023/08/21 00:45:46;;;;;;;;;;;23.20;51.30;;;19.62;98.47;96002.28;5004123;28;19913;-45
2023/08/21 00:48:14;;;;;;;;;;;23.20;51.30;;;19.59;98.65;96011.00;5007680;28;19945;-45
2023/08/21 00:50:40;;;;;;;;;;;23.20;51.30;;;19.58;98.04;96005.91;5009746;28;20291;-47
2023/08/21 00:53:06;;;;;;;;;;;23.20;51.40;;;19.53;98.38;96008.75;5000933;28;20348;-46
2023/08/21 00:55:33;;;;;;;;;;;23.20;51.50;;;19.47;98.82;96007.31;5002243;28;19917;-46
2023/08/21 00:58:02;;;;;;;;;;;23.10;51.50;;;19.45;99.03;96009.50;5011604;28;19909;-47
2023/08/21 01:00:29;;;;;;;;;;;23.10;51.60;;;19.42;99.27;96002.81;5011689;28;19948;-45
2023/08/21 01:02:55;;;;;;;;;;;23.10;51.70;;;19.40;99.16;96005.06;5008984;28;20008;-46
2023/08/21 01:05:23;;;;;;;;;;;23.10;51.80;;;19.37;99.23;96008.38;5009550;23;20068;-52
2023/08/21 01:08:12;;;;;;;;;;;23.00;51.80;;;19.34;100.00;96007.09;5021758;28;20334;-53
2023/08/21 01:11:11;;;;;;;;;;;23.00;51.90;;;19.30;100.00;96003.38;5007164;28;20365;-48
2023/08/21 01:14:10;;;;;;;;;;;23.00;52.00;;;19.29;100.00;96015.31;5011417;28;19913;-49
2023/08/21 01:16:39;;;;;;;;;;;23.00;52.20;;;19.26;100.00;96012.44;5004134;28;19920;-49
2023/08/21 01:19:19;;;;;;;;;;;22.90;52.20;;;19.18;100.00;96022.88;5023589;28;19920;-50
2023/08/21 01:21:45;;;;;;;;;;;22.90;52.30;;;19.18;100.00;96019.38;5012433;28;20442;-49
2023/08/21 01:24:10;;;;;;;;;;;22.90;52.40;;;19.18;100.00;96019.38;4999512;28;19916;-48
2023/08/21 01:26:36;;;;;;;;;;;22.90;52.60;;;19.10;100.00;96020.13;5013484;28;20367;-50
2023/08/21 01:29:02;;;;;;;;;;;22.80;52.50;;;19.11;100.00;96030.59;4999858;28;19909;-48
2023/08/21 01:31:36;;;;;;;;;;;22.80;52.60;;;19.09;100.00;96024.72;5000731;28;20376;-49
2023/08/21 01:34:09;;;;;;;;;;;22.80;52.80;;;19.05;100.00;96034.53;5027660;28;19916;-53
2023/08/21 01:36:35;;;;;;;;;;;22.80;52.90;;;19.03;100.00;96031.34;5011441;28;19909;-50
2023/08/21 01:39:02;;;;;;;;;;;22.70;52.90;;;18.98;100.00;96031.47;5000850;28;19941;-51
2023/08/21 01:41:28;;;;;;;;;;;22.70;53.00;;;18.97;100.00;96029.09;5011713;28;20276;-48
2023/08/21 01:43:53;;;;;;;;;;;22.70;53.00;;;18.96;100.00;96031.00;5005482;28;19963;-54
2023/08/21 01:46:20;;;;;;;;;;;22.60;53.10;;;18.96;100.00;96025.59;5007409;28;19909;-51
2023/08/21 01:48:46;;;;;;;;;;;22.60;53.30;;;18.94;100.00;96028.59;5005501;28;19971;-49
2023/08/21 01:51:11;;;;;;;;;;;22.60;53.40;;;18.91;100.00;96026.50;4999489;28;20358;-50
2023/08/21 01:53:37;;;;;;;;;;;22.60;53.50;;;18.88;100.00;96032.50;5011938;28;19932;-52
2023/08/21 01:56:03;;;;;;;;;;;22.60;53.60;;;18.86;100.00;96028.53;4999472;28;20264;-52
2023/08/21 01:58:29;;;;;;;;;;;22.50;53.50;;;18.86;100.00;96025.81;5005446;28;19917;-50
2023/08/21 02:00:54;;;;;;;;;;;22.60;53.70;;;18.84;100.00;96033.44;5004437;28;20006;-49
2023/08/21 02:03:20;;;;;;;;;;;22.50;53.80;;;18.84;100.00;96038.84;5000623;28;20397;-51
2023/08/21 02:05:46;;;;;;;;;;;22.50;53.90;;;18.81;100.00;96044.84;4997941;28;20012;-54
2023/08/21 02:08:16;;;;;;;;;;;22.50;54.00;;;18.81;100.00;96045.66;5010741;28;20280;-53
2023/08/21 02:10:52;;;;;;;;;;;22.50;54.00;;;18.79;100.00;96047.03;5011122;28;19955;-53
2023/08/21 02:13:19;;;;;;;;;;;22.50;54.10;;;18.71;100.00;96040.47;5006356;28;20286;-50
2023/08/21 02:15:45;;;;;;;;;;;22.40;54.20;;;18.72;100.00;96039.34;5010081;28;19909;-51
2023/08/21 02:18:11;;;;;;;;;;;22.40;54.20;;;18.69;100.00;96043.44;4996683;28;19909;-53
2023/08/21 02:20:37;;;;;;;;;;;22.40;54.30;;;18.69;100.00;96048.06;4995710;28;20077;-50
2023/08/21 02:23:03;;;;;;;;;;;22.40;54.40;;;18.67;100.00;96044.84;5012523;28;19909;-50
2023/08/21 02:25:31;;;;;;;;;;;22.40;54.50;;;18.65;100.00;96044.38;5011525;28;19913;-51
2023/08/21 02:27:57;;;;;;;;;;;22.40;54.60;;;18.62;100.00;96043.09;5012449;28;19932;-52
2023/08/21 02:30:26;;;;;;;;;;;22.30;54.60;;;18.63;100.00;96043.88;5002877;28;20043;-53
2023/08/21 02:32:55;;;;;;;;;;;22.30;54.70;;;18.62;100.00;96042.28;5002500;28;19917;-55
2023/08/21 02:35:21;;;;;;;;;;;22.30;54.70;;;18.60;100.00;96045.28;5009097;28;19952;-51
2023/08/21 02:37:47;;;;;;;;;;;22.30;54.90;;;18.59;100.00;96046.38;5009973;28;20387;-53
2023/08/21 02:40:13;;;;;;;;;;;22.30;54.90;;;18.59;100.00;96048.28;5023981;28;20490;-55
2023/08/21 02:42:39;;;;;;;;;;;22.30;55.00;;;18.56;100.00;96047.00;5001440;28;19954;-50
2023/08/21 02:45:08;;;;;;;;;;;22.30;55.00;;;18.55;100.00;96040.00;5013772;28;20007;-49
2023/08/21 02:47:38;;;;;;;;;;;22.30;55.10;;;18.55;100.00;96040.00;5001902;28;19940;-50
2023/08/21 02:50:06;;;;;;;;;;;22.20;55.20;;;18.53;100.00;96044.91;4998719;28;19916;-50
2023/08/21 02:52:33;;;;;;;;;;;22.30;55.30;;;18.53;100.00;96049.50;5011958;28;19920;-50
2023/08/21 02:54:59;;;;;;;;;;;22.30;55.30;;;18.55;100.00;96041.88;5000355;28;20350;-50
2023/08/21 02:57:26;;;;;;;;;;;22.30;55.40;;;18.53;100.00;96034.13;5003742;28;20008;-52
2023/08/21 02:59:53;;;;;;;;;;;22.30;55.40;;;18.49;100.00;96044.72;4997785;28;19917;-50
2023/08/21 03:02:20;;;;;;;;;;;22.30;55.50;;;18.50;100.00;96038.22;5000830;28;19913;-49
2023/08/21 03:04:47;;;;;;;;;;;22.30;55.50;;;18.48;100.00;96043.09;5008343;28;19917;-49
2023/08/21 03:07:13;;;;;;;;;;;22.20;55.50;;;18.45;100.00;96037.53;5004655;28;19922;-54
2023/08/21 03:09:40;;;;;;;;;;;22.30;55.60;;;18.46;100.00;96049.91;5015352;28;19916;-49
2023/08/21 03:12:08;;;;;;;;;;;22.20;55.50;;;18.44;100.00;96044.81;5006689;28;19913;-48
2023/08/21 03:14:34;;;;;;;;;;;22.20;55.60;;;18.45;100.00;96040.22;5009496;28;19956;-48
2023/08/21 03:17:00;;;;;;;;;;;22.20;55.60;;;18.45;100.00;96041.00;5009101;28;19909;-49
2023/08/21 03:19:26;;;;;;;;;;;22.20;55.70;;;18.42;100.00;96036.22;5008373;28;19916;-48
2023/08/21 03:21:52;;;;;;;;;;;22.20;55.70;;;18.40;100.00;96040.34;5008749;28;19909;-50
2023/08/21 03:24:18;;;;;;;;;;;22.20;55.70;;;18.39;100.00;96034.13;5014491;28;20282;-50
2023/08/21 03:26:44;;;;;;;;;;;22.20;55.70;;;18.37;100.00;96046.34;5003226;28;20355;-53
2023/08/21 03:29:10;;;;;;;;;;;22.20;55.80;;;18.33;100.00;96043.44;5009008;28;19933;-49
2023/08/21 03:31:36;;;;;;;;;;;22.20;55.80;;;18.31;100.00;96052.94;4999614;28;19963;-49
2023/08/21 03:34:02;;;;;;;;;;;22.10;55.80;;;18.27;100.00;96050.84;5009133;28;19957;-54
2023/08/21 03:36:31;;;;;;;;;;;22.10;55.80;;;18.28;100.00;96051.66;5007172;28;19913;-53
2023/08/21 03:39:01;;;;;;;;;;;22.10;55.90;;;18.25;100.00;96054.94;5007628;28;19916;-50
2023/08/21 03:41:27;;;;;;;;;;;22.10;55.90;;;18.23;100.00;96043.66;5009098;28;19909;-49
2023/08/21 03:43:54;;;;;;;;;;;22.00;55.90;;;18.21;100.00;96043.19;5007863;28;20235;-49
2023/08/21 03:46:19;;;;;;;;;;;22.00;55.90;;;18.16;100.00;96040.56;5008621;28;19909;-50
2023/08/21 03:48:45;;;;;;;;;;;22.00;56.10;;;18.14;100.00;96042.75;4995120;28;19920;-49
2023/08/21 03:51:11;;;;;;;;;;;22.00;56.10;;;18.15;100.00;96044.38;5009201;28;19966;-49
2023/08/21 03:53:37;;;;;;;;;;;22.00;56.10;;;18.16;100.00;96048.66;5007728;28;19959;-49
2023/08/21 03:56:03;;;;;;;;;;;22.00;56.20;;;18.14;100.00;96051.66;5001966;28;20000;-53
2023/08/21 03:58:29;;;;;;;;;;;22.00;56.20;;;18.16;100.00;96045.97;5008298;28;20407;-55
2023/08/21 04:00:55;;;;;;;;;;;22.00;56.20;;;18.14;100.00;96048.94;5007648;28;20283;-51
2023/08/21 04:03:21;;;;;;;;;;;21.90;56.20;;;18.12;100.00;96050.38;5014773;28;20360;-54
2023/08/21 04:05:47;;;;;;;;;;;21.90;56.30;;;18.09;100.00;96045.59;5002518;28;19924;-54
2023/08/21 04:08:14;;;;;;;;;;;21.90;56.30;;;18.11;100.00;96049.56;5010144;28;20391;-53
2023/08/21 04:10:41;;;;;;;;;;;21.90;56.40;;;18.08;100.00;96049.34;5014130;28;19932;-54
2023/08/21 04:13:07;;;;;;;;;;;21.90;56.40;;;18.04;100.00;96049.97;4999684;28;20004;-51
2023/08/21 04:15:36;;;;;;;;;;;21.90;56.50;;;17.99;100.00;96050.09;5007573;28;20008;-49
2023/08/21 04:18:03;;;;;;;;;;;21.90;56.50;;;18.00;100.00;96051.66;5010117;28;19916;-53
2023/08/21 04:20:28;;;;;;;;;;;21.90;56.60;;;18.04;100.00;96060.75;5001515;28;20383;-52
2023/08/21 04:22:54;;;;;;;;;;;21.90;56.60;;;18.05;100.00;96058.88;5007223;28;19923;-53
2023/08/21 04:25:20;;;;;;;;;;;21.80;56.60;;;18.04;100.00;96063.44;5008525;28;19909;-54
2023/08/21 04:27:45;;;;;;;;;;;21.80;57.00;;;18.01;100.00;96066.72;5007092;28;19916;-52
2023/08/21 04:30:12;;;;;;;;;;;21.80;56.70;;;18.07;100.00;96066.63;5007816;28;19924;-54
2023/08/21 04:32:38;;;;;;;;;;;21.80;56.70;;;18.08;100.00;96062.84;5006447;28;19924;-54
2023/08/21 04:35:05;;;;;;;;;;;21.80;56.80;;;18.07;100.00;96070.13;5008934;28;19908;-53
2023/08/21 04:37:31;;;;;;;;;;;21.80;56.80;;;18.08;100.00;96070.91;5007049;28;20283;-53
2023/08/21 04:39:57;;;;;;;;;;;21.80;56.80;;;18.08;100.00;96070.91;5009353;28;20450;-53
2023/08/21 04:42:23;;;;;;;;;;;21.80;56.90;;;18.07;100.00;96070.13;5005856;28;20006;-52
2023/08/21 04:44:49;;;;;;;;;;;21.90;56.90;;;18.02;100.00;96071.03;5009089;28;19909;-49
2023/08/21 04:47:26;;;;;;;;;;;21.90;56.90;;;17.96;100.00;96074.13;5006172;28;19916;-53
2023/08/21 04:49:53;;;;;;;;;;;21.90;56.90;;;17.99;100.00;96078.94;4999370;28;19916;-50
2023/08/21 04:52:20;;;;;;;;;;;21.90;56.90;;;18.04;100.00;96076.91;4998981;28;20016;-50
2023/08/21 04:54:49;;;;;;;;;;;21.90;56.90;;;18.05;100.00;96083.13;5006517;28;19909;-54
2023/08/21 04:57:16;;;;;;;;;;;21.90;56.90;;;18.09;100.00;96091.41;5004789;28;19909;-53
2023/08/21 04:59:41;;;;;;;;;;;21.90;56.90;;;18.05;100.00;96088.53;5010688;28;19910;-54
2023/08/21 05:02:07;;;;;;;;;;;21.90;56.90;;;18.14;100.00;96088.59;5013854;28;20046;-52
2023/08/21 05:04:36;;;;;;;;;;;22.00;57.00;;;18.17;100.00;96091.47;5000381;28;19917;-53
2023/08/21 05:07:04;;;;;;;;;;;22.10;56.90;;;18.33;100.00;96100.06;5005845;28;19940;-54
2023/08/21 05:09:30;;;;;;;;;;;22.20;57.00;;;18.44;100.00;96096.06;5011700;28;19909;-53
2023/08/21 05:11:56;;;;;;;;;;;22.30;57.00;;;18.59;100.00;96099.53;5001865;28;19920;-51
2023/08/21 05:14:23;;;;;;;;;;;22.40;57.00;;;18.76;100.00;96098.94;5011421;28;19971;-49
2023/08/21 05:16:51;;;;;;;;;;;22.60;57.00;;;18.83;100.00;96104.69;5002633;28;20384;-54
2023/08/21 05:19:17;;;;;;;;;;;22.70;57.00;;;18.91;100.00;96101.28;5001567;28;19909;-53
2023/08/21 05:21:46;;;;;;;;;;;22.80;56.90;;;19.01;100.00;96102.94;5013537;28;19915;-53
2023/08/21 05:24:11;;;;;;;;;;;22.90;56.80;;;19.11;100.00;96103.50;4999465;28;19909;-55
2023/08/21 05:26:38;;;;;;;;;;;23.00;56.80;;;19.21;100.00;96109.75;5001295;28;19915;-53
2023/08/21 05:29:04;;;;;;;;;;;23.10;56.60;;;19.33;100.00;96115.41;5007038;28;19910;-53
2023/08/21 05:31:30;;;;;;;;;;;23.30;56.60;;;19.55;100.00;96111.91;4996726;28;19913;-55
2023/08/21 05:33:56;;;;;;;;;;;23.50;56.40;;;19.81;100.00;96109.38;5011920;28;19909;-55
2023/08/21 05:36:22;;;;;;;;;;;23.80;56.30;;;20.07;100.00;96112.19;5007097;28;20282;-54
2023/08/21 05:38:51;;;;;;;;;;;24.10;56.10;;;20.21;98.52;96106.66;5010882;28;19994;-51
2023/08/21 05:41:17;;;;;;;;;;;24.30;56.10;;;20.39;97.91;96113.72;5001253;28;20367;-48
2023/08/21 05:43:45;;;;;;;;;;;24.40;55.90;;;20.54;96.51;96110.63;4999429;28;19947;-48
2023/08/21 05:46:11;;;;;;;;;;;24.70;55.80;;;20.80;95.18;96118.78;5013213;28;19909;-46
2023/08/21 05:48:37;;;;;;;;;;;25.00;55.50;;;21.11;94.20;96111.63;4999106;28;19909;-47
2023/08/21 05:51:03;;;;;;;;;;;25.30;55.20;;;21.43;92.46;96115.78;5012979;28;19916;-47
2023/08/21 05:53:29;;;;;;;;;;;25.70;55.10;;;21.80;89.28;96119.69;4999478;28;20298;-46
2023/08/21 05:55:54;;;;;;;;;;;26.10;54.80;;;22.11;87.28;96124.06;5005775;28;19909;-47
2023/08/21 05:58:20;;;;;;;;;;;26.50;54.60;;;22.46;84.86;96132.06;4999673;28;19909;-47
2023/08/21 06:00:47;;;;;;;;;;;26.80;54.30;;;22.75;83.52;96123.91;5003648;28;19910;-47
2023/08/21 06:03:13;;;;;;;;;;;27.20;54.10;;;23.14;80.30;96121.09;5012139;28;20338;-46
2023/08/21 06:05:39;;;;;;;;;;;27.60;53.80;;;23.52;75.68;96126.38;5003952;28;19956;-52
2023/08/21 06:08:05;;;;;;;;;;;28.00;53.50;;;23.88;72.06;96119.47;5012742;28;19920;-48
2023/08/21 06:10:33;;;;;;;;;;;28.40;53.10;;;24.21;67.19;96133.81;4999956;28;19931;-49
2023/08/21 06:12:59;;;;;;;;;;;28.80;52.80;;;24.53;67.00;96128.63;5003380;28;19913;-48
2023/08/21 06:15:25;;;;;;;;;;;29.10;52.20;;;24.86;63.98;96127.69;5012419;28;19909;-46
2023/08/21 06:17:50;;;;;;;;;;;29.50;51.80;;;25.14;61.99;96130.50;4998961;28;19909;-48
2023/08/21 06:20:18;;;;;;;;;;;29.80;51.40;;;25.44;62.16;96139.13;5012488;28;19916;-46
2023/08/21 06:22:44;;;;;;;;;;;30.10;51.10;;;25.76;60.21;96131.03;4999758;28;19909;-50
2023/08/21 06:25:10;;;;;;;;;;;30.40;50.60;;;25.96;59.35;96138.25;5010569;28;19962;-49
2023/08/21 06:27:35;;;;;;;;;;;30.70;50.20;;;26.19;58.71;96141.16;5012386;28;20295;-46
2023/08/21 06:30:01;;;;;;;;;;;31.10;49.80;;;26.35;57.81;96140.38;5000958;28;20007;-46
2023/08/21 06:32:27;;;;;;;;;;;31.40;49.40;;;26.56;57.27;96151.06;4999599;28;19917;-47
2023/08/21 06:34:52;;;;;;;;;;;31.70;48.90;;;26.77;56.52;96149.59;5011566;28;19909;-46
2023/08/21 06:37:18;;;;;;;;;;;32.00;48.50;;;26.95;55.30;96149.19;5004575;28;19913;-48
2023/08/21 06:39:44;;;;;;;;;;;32.30;48.10;;;27.09;54.62;96159.69;4998501;28;19925;-46
2023/08/21 06:42:10;;;;;;;;;;;32.60;47.60;;;27.27;54.22;96152.69;5011447;28;19909;-47
2023/08/21 06:44:35;;;;;;;;;;;32.80;47.20;;;27.46;53.93;96151.91;5012163;28;19916;-47
2023/08/21 06:47:01;;;;;;;;;;;33.10;46.90;;;27.67;53.70;96151.50;5005196;28;19909;-48
2023/08/21 06:49:27;;;;;;;;;;;33.30;46.50;;;27.95;52.68;96155.97;4993012;28;20292;-46
2023/08/21 06:51:53;;;;;;;;;;;33.50;46.20;;;28.12;52.12;96150.03;5011926;28;19917;-49
2023/08/21 06:54:18;;;;;;;;;;;33.60;45.80;;;28.42;51.55;96154.88;5003496;28;19916;-48
2023/08/21 06:56:44;;;;;;;;;;;33.90;45.60;;;28.63;50.82;96146.22;4999332;28;20360;-48
2023/08/21 06:59:10;;;;;;;;;;;34.10;45.30;;;28.87;50.28;96151.28;5012019;28;20050;-48
2023/08/21 07:01:36;;;;;;;;;;;34.40;45.00;;;29.14;49.52;96151.28;4991656;28;19909;-48
2023/08/21 07:04:02;;;;;;;;;;;34.60;44.60;;;29.34;49.28;96157.44;5005602;28;20351;-50
2023/08/21 07:06:30;;;;;;;;;;;34.90;44.30;;;29.55;48.97;96159.63;5005875;28;19913;-53
2023/08/21 07:08:55;;;;;;;;;;;35.10;44.00;;;29.76;48.52;96157.19;5011448;28;20281;-49
2023/08/21 07:11:21;;;;;;;;;;;35.40;43.70;;;29.83;48.14;96159.22;5005092;28;19913;-49
2023/08/21 07:13:47;;;;;;;;;;;35.60;44.00;;;29.76;48.13;96157.19;5009151;28;19909;-48
2023/08/21 07:16:13;;;;;;;;;;;35.70;43.00;;;29.88;48.60;96154.19;5005535;28;19914;-49
2023/08/21 07:18:39;;;;;;;;;;;35.90;42.70;;;29.98;47.57;96163.69;5003995;28;20363;-52
2023/08/21 07:21:05;;;;;;;;;;;36.00;42.50;;;30.20;47.58;96151.00;5005208;28;20351;-54
2023/08/21 07:23:32;;;;;;;;;;;36.20;42.10;;;30.51;47.13;96157.16;5005358;28;19909;-51
2023/08/21 07:25:59;;;;;;;;;;;36.50;41.90;;;30.49;47.40;96154.00;5010664;28;19917;-52
2023/08/21 07:28:25;;;;;;;;;;;36.60;41.60;;;30.62;47.42;96160.78;5011413;28;20323;-50
2023/08/21 07:30:58;;;;;;;;;;;36.70;41.30;;;30.74;47.04;96162.44;5001697;28;19920;-47
2023/08/21 07:33:25;;;;;;;;;;;36.80;41.10;;;30.92;46.27;96162.59;4993044;28;19913;-51
2023/08/21 07:36:05;;;;;;;;;;;37.00;41.60;;;30.99;46.69;96157.91;5010532;28;19913;-48
2023/08/21 07:38:32;;;;;;;;;;;37.20;40.80;;;31.07;46.25;96162.28;4998773;28;19909;-49
2023/08/21 07:41:10;;;;;;;;;;;37.40;40.40;;;31.26;45.99;96160.44;5011956;28;20298;-48
2023/08/21 07:43:37;;;;;;;;;;;37.60;40.20;;;31.47;46.08;96165.28;5008797;28;20399;-49
2023/08/21 07:46:13;;;;;;;;;;;37.70;39.90;;;31.98;45.34;96161.56;5011476;28;19915;-52
2023/08/21 07:48:39;;;;;;;;;;;37.90;39.70;;;32.30;44.35;96164.38;4999743;28;19963;-49
2023/08/21 07:51:05;;;;;;;;;;;38.10;39.70;;;32.57;44.02;96164.81;5014507;28;20012;-48
2023/08/21 07:53:31;;;;;;;;;;;38.30;39.40;;;32.12;44.74;96166.31;5002233;28;19962;-48
2023/08/21 07:55:58;;;;;;;;;;;38.40;39.20;;;31.96;44.92;96169.41;5014145;28;19917;-48
2023/08/21 07:58:24;;;;;;;;;;;38.50;38.90;;;31.96;45.08;96164.69;5013872;28;19909;-47
2023/08/21 08:00:50;;;;;;;;;;;38.50;38.70;;;32.14;44.83;96161.97;5010302;28;19974;-49
2023/08/21 08:03:16;;;;;;;;;;;38.60;38.60;;;32.51;44.11;96163.63;5014720;28;19912;-48
2023/08/21 08:05:42;;;;;;;;;;;38.70;38.50;;;32.46;43.83;96164.00;5005275;28;19917;-49
2023/08/21 08:08:09;;;;;;;;;;;38.70;38.30;;;32.63;43.84;96162.47;5008435;28;20327;-48
2023/08/21 08:10:40;;;;;;;;;;;38.80;38.20;;;32.94;43.10;96166.38;5008199;28;19970;-48
2023/08/21 08:13:07;;;;;;;;;;;38.90;38.10;;;33.14;42.56;96159.25;4996543;28;19918;-48
2023/08/21 08:15:34;;;;;;;;;;;39.20;37.90;;;33.36;42.47;96153.69;5009203;28;19933;-48
2023/08/21 08:18:02;;;;;;;;;;;39.30;37.70;;;33.68;42.03;96153.56;5000546;28;19917;-48
2023/08/21 08:20:30;;;;;;;;;;;39.60;37.60;;;33.83;42.15;96154.31;5003344;28;19913;-48
2023/08/21 08:22:56;;;;;;;;;;;39.70;37.20;;;34.09;40.74;96153.00;4997514;28;19913;-48
2023/08/21 08:25:22;;;;;;;;;;;39.80;36.90;;;34.09;40.27;96153.78;4997115;28;19909;-48
2023/08/21 08:27:48;;;;;;;;;;;39.90;36.80;;;34.25;40.75;96164.34;4998995;28;19913;-48
2023/08/21 08:30:15;;;;;;;;;;;40.20;36.60;;;34.50;40.11;96155.06;5002829;28;19909;-48
2023/08/21 08:32:45;;;;;;;;;;;40.30;36.30;;;34.52;40.92;96156.25;5001333;28;19914;-54
2023/08/21 08:35:13;;;;;;;;;;;40.50;36.20;;;34.59;39.80;96155.41;5008092;28;19917;-55
2023/08/21 08:37:40;;;;;;;;;;;40.60;36.00;;;34.73;39.72;96157.28;5004248;28;19944;-54
2023/08/21 08:40:07;;;;;;;;;;;40.70;35.80;;;34.85;39.49;96151.25;4995242;28;19960;-52
2023/08/21 08:42:35;;;;;;;;;;;40.80;35.50;;;35.18;39.40;96151.75;4997728;28;20123;-53
2023/08/21 08:45:04;;;;;;;;;;;41.00;35.40;;;35.38;39.41;96160.22;4999044;28;19962;-53
2023/08/21 08:47:34;;;;;;;;;;;41.20;35.30;;;35.66;38.16;96157.16;4994696;28;19917;-50
2023/08/21 08:50:04;;;;;;;;;;;41.40;35.10;;;35.86;37.25;96159.28;4994035;28;19915;-50
2023/08/21 08:52:36;;;;;;;;;;;41.50;34.90;;;35.98;37.57;96157.91;4994824;28;20334;-48
2023/08/21 08:55:03;;;;;;;;;;;41.70;34.70;;;35.99;36.71;96157.50;4994326;28;19917;-50
2023/08/21 08:57:30;;;;;;;;;;;41.90;34.50;;;36.12;36.88;96163.28;4994625;28;19910;-50
2023/08/21 08:59:56;;;;;;;;;;;42.00;34.20;;;36.14;36.51;96153.38;5007182;28;20296;-48
2023/08/21 09:02:24;;;;;;;;;;;42.10;34.00;;;36.24;36.41;96159.16;4993972;28;19909;-50
2023/08/21 09:04:50;;;;;;;;;;;42.30;33.90;;;36.45;37.65;96150.53;5009250;28;19974;-50
2023/08/21 09:07:19;;;;;;;;;;;42.40;33.70;;;36.29;36.56;96153.13;4993618;28;19909;-48
2023/08/21 09:09:50;;;;;;;;;;;42.50;33.40;;;36.46;36.45;96151.31;4993052;28;19909;-48
2023/08/21 09:12:17;;;;;;;;;;;42.60;33.20;;;36.43;35.75;96154.91;4996546;28;19963;-52
2023/08/21 09:14:44;;;;;;;;;;;42.70;33.10;;;36.43;35.48;96149.38;4995828;28;19978;-48
2023/08/21 09:17:11;;;;;;;;;;;42.70;32.80;;;36.62;35.99;96145.13;4996940;28;20388;-50
2023/08/21 09:19:37;;;;;;;;;;;42.70;32.70;;;36.78;35.55;96151.56;4999870;28;20011;-51
2023/08/21 09:22:18;;;;;;;;;;;42.80;32.60;;;36.89;34.61;96145.03;4995259;28;19913;-50
2023/08/21 09:25:10;;;;;;;;;;;42.90;32.50;;;36.95;34.77;96141.38;4992664;28;19909;-49
2023/08/21 09:27:40;;;;;;;;;;;43.10;32.30;;;37.07;33.73;96148.31;4995142;28;20375;-50
2023/08/21 09:30:09;;;;;;;;;;;43.20;32.20;;;36.77;34.26;96140.91;4994535;28;19920;-53
2023/08/21 09:32:57;;;;;;;;;;;43.20;31.90;;;36.92;33.72;96145.00;4999935;28;19913;-47
2023/08/21 09:35:24;;;;;;;;;;;43.30;31.80;;;36.88;33.96;96138.72;4996859;28;19913;-52
2023/08/21 09:37:52;;;;;;;;;;;43.30;31.50;;;36.89;34.46;96136.72;4998384;28;19910;-51
2023/08/21 09:40:19;;;;;;;;;;;43.40;31.40;;;36.97;33.97;96133.41;4994509;28;19917;-49
2023/08/21 09:42:45;;;;;;;;;;;43.50;31.30;;;37.27;33.81;96129.69;5002108;28;19994;-50
2023/08/21 09:45:11;;;;;;;;;;;43.60;31.20;;;37.88;34.08;96130.47;5008068;28;20002;-51
2023/08/21 09:47:39;;;;;;;;;;;43.80;31.10;;;38.24;32.73;96129.69;4994287;28;20005;-53
2023/08/21 09:50:05;;;;;;;;;;;44.00;31.00;;;38.33;32.41;96127.88;5005077;28;19909;-52
2023/08/21 09:52:32;;;;;;;;;;;44.20;30.80;;;38.31;31.97;96116.38;4998927;28;19913;-50
2023/08/21 09:54:58;;;;;;;;;;;44.30;30.60;;;37.94;32.43;96118.41;5004686;28;20356;-51
2023/08/21 09:57:24;;;;;;;;;;;44.40;30.50;;;37.81;32.86;96116.72;5003546;28;19953;-52
2023/08/21 09:59:54;;;;;;;;;;;44.40;30.10;;;38.10;32.94;96114.09;4997174;28;19955;-52
2023/08/21 10:02:22;;;;;;;;;;;44.50;30.20;;;38.37;32.28;96111.88;5000324;28;19916;-51
2023/08/21 10:04:49;;;;;;;;;;;44.50;30.00;;;38.82;32.62;96111.16;5026212;28;20411;-51
2023/08/21 10:07:20;;;;;;;;;;;44.70;30.00;;;39.17;31.37;96119.03;4994862;28;19952;-52
2023/08/21 10:09:47;;;;;;;;;;;45.00;30.00;;;39.42;30.12;96112.78;5006194;28;19909;-55
2023/08/21 10:12:16;;;;;;;;;;;45.20;29.80;;;39.33;30.08;96107.84;5016651;28;20419;-52
2023/08/21 10:14:42;;;;;;;;;;;45.40;29.60;;;39.23;30.79;96114.47;4998607;28;19955;-52
2023/08/21 10:17:09;;;;;;;;;;;45.40;29.40;;;39.54;29.80;96109.25;4999490;28;20013;-49
2023/08/21 10:19:35;;;;;;;;;;;45.50;29.20;;;39.45;29.35;96112.69;5003170;28;19909;-50
2023/08/21 10:22:03;;;;;;;;;;;45.70;29.20;;;39.17;29.94;96110.66;5011890;28;19916;-52
2023/08/21 10:24:38;;;;;;;;;;;45.70;29.10;;;39.52;30.07;96109.69;4998780;28;19963;-48
2023/08/21 10:27:07;;;;;;;;;;;45.80;28.90;;;39.56;29.29;96102.00;4999252;28;20290;-48
2023/08/21 10:29:33;;;;;;;;;;;45.80;28.70;;;39.38;29.79;96101.75;5003841;28;19910;-51
2023/08/21 10:32:02;;;;;;;;;;;45.90;28.80;;;39.63;29.68;96101.00;5005174;28;19913;-53
2023/08/21 10:34:38;;;;;;;;;;;46.00;28.70;;;39.56;29.74;96098.44;5002182;28;20314;-54
2023/08/21 10:37:12;;;;;;;;;;;46.10;28.60;;;39.79;30.04;96100.16;5006650;28;19932;-50
2023/08/21 10:39:52;;;;;;;;;;;46.20;28.50;;;39.62;30.65;96099.47;5005152;28;19913;-50
2023/08/21 10:42:18;;;;;;;;;;;46.40;28.50;;;40.27;29.22;96103.09;5007899;28;19947;-49
2023/08/21 10:44:51;;;;;;;;;;;46.50;28.40;;;40.56;28.76;96092.56;4997774;28;19953;-54
2023/08/21 10:47:26;;;;;;;;;;;46.80;28.30;;;40.65;28.39;96098.28;5001236;28;20268;-50
2023/08/21 10:49:57;;;;;;;;;;;47.00;28.20;;;40.69;28.46;96098.16;5009580;28;19916;-52
2023/08/21 10:52:34;;;;;;;;;;;47.20;28.10;;;40.97;28.97;96096.38;5001986;28;19920;-54
2023/08/21 10:55:03;;;;;;;;;;;47.40;27.90;;;41.08;27.37;96090.44;5019975;28;20390;-55
2023/08/21 10:57:31;;;;;;;;;;;47.50;27.80;;;41.18;27.15;96092.06;5004742;28;19909;-48
2023/08/21 10:59:59;;;;;;;;;;;47.70;27.70;;;40.88;26.63;96093.50;4997971;28;20376;-54
2023/08/21 11:02:31;;;;;;;;;;;47.90;27.50;;;40.67;27.93;96084.63;5012052;28;19915;-51
2023/08/21 11:04:58;;;;;;;;;;;47.90;27.40;;;40.41;28.98;96088.69;4999101;28;19917;-51
2023/08/21 11:07:27;;;;;;;;;;;47.90;27.10;;;40.72;28.57;96088.88;5004882;28;19909;-52
2023/08/21 11:09:53;;;;;;;;;;;48.00;27.20;;;41.01;26.87;96085.09;5000075;28;20008;-51
2023/08/21 11:12:22;;;;;;;;;;;48.00;27.00;;;41.39;27.80;96084.91;5006815;28;20020;-51
2023/08/21 11:14:49;;;;;;;;;;;48.00;27.00;;;41.38;27.48;96078.56;5011697;28;19909;-49
2023/08/21 11:17:16;;;;;;;;;;;48.10;27.40;;;41.29;27.20;96080.50;4998657;28;19915;-52